sim
Sign-in with your pilot id or email,
or register
Callsign
Passwort

Schedule Details

Flight Number: OEO3031
Departure: Dusseldorf International Airport (EDDL) at 09:05
Arrival: Munich Airport (EDDM) at 10:20

Weather Information
Getting current METAR information for EDDL 262120Z 21014KT 3800 +RA SCT006 BKN013 OVC021 10/09 Q0997 BECMG 20008KT
Getting current METAR information for EDDM 262120Z 24018KT 9999 OVC023 07/04 Q1001 NOSIG

Schedule Frequency

Route Map